Portada
METAR-TAF:

METAR-TAF

Aeropuertos :

Hafar Al-Batin, Arabia Saudita

latitud: 27-54N, longitud: 045-32E, altitud: 413 m

METAR: falta

Hora: 20:01 (17:01 UTC)

Pronóstico

El informe se hizo hace 12 horas y 1 minutos, a las 05:00 UTC
Pronóstico válido del 02 a las 06 UTC al 02 a las 20 UTC
Viento 8 kt del este
Visibilidad 10 km o más
sin nubes por debajo de 1500 m y sin presencia de cumulonimbus.
Evolucionando progresivamente
del 02 a las 14 UTC al 02 a las 16 UTC
Viento 8 kt del norte-noreste

TAF: OEKK 020500Z 0206/0220 09008KT CAVOK BECMG 0214/0216 02008KT

Observaciones y pronósticos meteorológicos de más de 4000 aeropuertos (mensajes METAR y TAF).

Los puntos amarillos y rojos representan las estaciones disponibles.

Ponga el ratón en el punto deseado para ver el nombre de la estación.

Haga clic para ver las observaciones y los pronósticos meteorológicos.

Para cambiar el mapa : haga clic en los botones verdes con una cruz de color negro para hacer un zoom, en el botón verde con un guión para alejar o en las flechas verdes para mapas adyacentes.


METAR-TAF: